createdAt,value
2022-08-02T00:00:16.548Z,73.09
2022-08-02T00:02:47.204Z,72.82
2022-08-02T00:05:15.860Z,73.01
2022-08-02T00:07:43.849Z,72.75
2022-08-02T00:10:13.016Z,72.23
2022-08-02T00:12:40.982Z,71.91
2022-08-02T00:15:10.817Z,71.41
2022-08-02T00:17:45.609Z,71.18
2022-08-02T00:20:16.696Z,71.15
2022-08-02T00:22:44.809Z,71.01
2022-08-02T00:25:12.776Z,70.70
2022-08-02T00:27:40.692Z,70.49
2022-08-02T00:30:09.786Z,70.55
2022-08-02T00:32:37.780Z,70.59
2022-08-02T00:35:08.658Z,70.64
2022-08-02T00:37:40.622Z,70.79
2022-08-02T00:40:09.994Z,70.63
2022-08-02T00:42:38.182Z,70.56
2022-08-02T00:45:07.281Z,70.47
2022-08-02T00:47:35.197Z,70.71
2022-08-02T00:50:03.230Z,70.44
2022-08-02T00:52:33.721Z,70.54
2022-08-02T00:55:01.685Z,70.72
2022-08-02T00:57:29.538Z,70.81
2022-08-02T00:59:57.452Z,70.48
2022-08-02T01:02:25.382Z,70.64
2022-08-02T01:04:53.312Z,70.37
2022-08-02T01:07:21.206Z,70.66
2022-08-02T01:09:50.575Z,70.61
2022-08-02T01:12:18.584Z,70.86
2022-08-02T01:14:50.705Z,71.09
2022-08-02T01:17:24.490Z,71.03
2022-08-02T01:19:58.843Z,71.03
2022-08-02T01:23:01.109Z,71.29
2022-08-02T01:25:51.486Z,71.32
2022-08-02T01:28:40.033Z,71.24
2022-08-02T01:31:15.279Z,71.92
2022-08-02T01:33:48.953Z,73.26
2022-08-02T01:36:19.905Z,73.89
2022-08-02T01:38:51.153Z,74.19
2022-08-02T01:41:22.700Z,74.62
2022-08-02T01:43:56.828Z,74.75
2022-08-02T01:46:26.605Z,74.81
2022-08-02T01:48:57.388Z,75.16
2022-08-02T01:51:41.344Z,74.96
2022-08-02T01:54:12.913Z,74.33
2022-08-02T01:56:42.960Z,73.83
2022-08-02T01:59:15.298Z,73.73
2022-08-02T02:01:44.375Z,73.15
2022-08-02T02:04:15.260Z,73.46
2022-08-02T02:06:45.538Z,73.33
2022-08-02T02:09:15.454Z,72.94
2022-08-02T02:12:12.086Z,72.95
2022-08-02T02:14:35.707Z,72.60
2022-08-02T02:17:04.856Z,72.31
2022-08-02T02:19:35.189Z,72.29
2022-08-02T02:22:03.633Z,72.29
2022-08-02T02:24:31.786Z,72.30
2022-08-02T02:27:01.984Z,72.62
2022-08-02T02:29:34.064Z,72.43
2022-08-02T02:32:07.282Z,72.16
2022-08-02T02:34:38.907Z,72.02
2022-08-02T02:37:13.508Z,71.99
2022-08-02T02:39:44.186Z,71.98
2022-08-02T02:42:15.840Z,72.02
2022-08-02T02:44:45.521Z,71.89
2022-08-02T02:47:17.537Z,71.67
2022-08-02T02:49:47.392Z,71.83
2022-08-02T02:52:17.611Z,72.11
2022-08-02T02:54:50.040Z,72.28
2022-08-02T02:57:19.382Z,72.41
2022-08-02T02:59:49.820Z,72.39
2022-08-02T03:02:19.745Z,72.21
2022-08-02T03:04:55.661Z,72.21
2022-08-02T03:07:24.692Z,71.91
2022-08-02T03:09:54.624Z,71.76
2022-08-02T03:12:31.943Z,71.62
2022-08-02T03:15:01.148Z,71.77
2022-08-02T03:17:40.529Z,71.71
2022-08-02T03:20:12.942Z,71.75
2022-08-02T03:22:41.374Z,71.64
2022-08-02T03:25:10.272Z,71.84
2022-08-02T03:27:38.210Z,71.61
2022-08-02T03:30:08.565Z,72.24
2022-08-02T03:32:37.878Z,72.36
2022-08-02T03:35:10.246Z,71.94
2022-08-02T03:37:38.929Z,71.51
2022-08-02T03:40:09.198Z,71.68
2022-08-02T03:42:37.383Z,71.87
2022-08-02T03:45:09.174Z,71.60
2022-08-02T03:47:39.685Z,71.53
2022-08-02T03:50:12.840Z,71.49
2022-08-02T03:52:42.609Z,71.36
2022-08-02T03:55:11.683Z,71.26
2022-08-02T03:57:40.153Z,71.34
2022-08-02T04:00:09.656Z,71.13
2022-08-02T04:02:40.799Z,71.17
2022-08-02T04:05:11.057Z,71.23
2022-08-02T04:08:33.919Z,71.14
2022-08-02T04:10:27.359Z,71.32
2022-08-02T04:12:56.237Z,71.52
2022-08-02T04:15:25.006Z,71.55
2022-08-02T04:17:57.761Z,71.50
2022-08-02T04:20:31.025Z,71.70
2022-08-02T04:23:02.904Z,71.95
2022-08-02T04:25:35.563Z,71.95
2022-08-02T04:28:16.708Z,71.89
2022-08-02T04:30:46.184Z,71.63
2022-08-02T04:33:14.574Z,71.91
2022-08-02T04:35:44.422Z,71.56
2022-08-02T04:38:14.624Z,71.27
2022-08-02T04:40:50.827Z,71.63
2022-08-02T04:43:18.737Z,72.28
2022-08-02T04:45:48.128Z,71.59
2022-08-02T04:48:16.109Z,71.87
2022-08-02T04:50:45.419Z,71.79
2022-08-02T04:53:13.405Z,71.63
2022-08-02T04:55:41.378Z,71.68
2022-08-02T04:58:24.130Z,71.83
2022-08-02T05:00:57.446Z,71.64
2022-08-02T05:03:25.409Z,71.67
2022-08-02T05:05:54.753Z,71.78
2022-08-02T05:08:22.661Z,71.75
2022-08-02T05:10:50.559Z,71.70
2022-08-02T05:13:18.521Z,71.71
2022-08-02T05:15:49.413Z,71.48
2022-08-02T05:18:17.627Z,71.33
2022-08-02T05:20:45.549Z,71.27
2022-08-02T05:23:14.878Z,71.41
2022-08-02T05:25:42.786Z,71.18
2022-08-02T05:28:11.820Z,71.44
2022-08-02T05:30:40.162Z,71.36
2022-08-02T05:33:09.051Z,71.61
2022-08-02T05:35:37.066Z,71.80
2022-08-02T05:38:05.217Z,71.83
2022-08-02T05:40:54.281Z,72.00
2022-08-02T05:43:23.271Z,71.86
2022-08-02T05:45:53.499Z,71.77
2022-08-02T05:48:23.196Z,71.76
2022-08-02T05:50:57.210Z,71.71
2022-08-02T05:53:33.371Z,71.80
2022-08-02T05:56:15.182Z,71.73
2022-08-02T05:58:51.217Z,71.61
2022-08-02T06:01:29.867Z,71.27
2022-08-02T06:04:00.613Z,71.21
2022-08-02T06:06:33.298Z,71.18
2022-08-02T06:09:03.994Z,71.11
2022-08-02T06:11:39.019Z,71.31
2022-08-02T06:14:08.132Z,71.19
2022-08-02T06:16:42.500Z,70.69
2022-08-02T06:19:12.738Z,70.54
2022-08-02T06:22:31.433Z,70.04
2022-08-02T06:24:31.665Z,69.64
2022-08-02T06:27:03.156Z,69.02
2022-08-02T06:29:38.486Z,68.74
2022-08-02T06:32:08.960Z,68.37
2022-08-02T06:34:40.743Z,68.26
2022-08-02T06:37:16.120Z,68.14
2022-08-02T06:39:46.566Z,68.14
2022-08-02T06:42:27.350Z,68.17
2022-08-02T06:44:58.301Z,68.20
2022-08-02T06:47:27.378Z,68.20
2022-08-02T06:49:57.055Z,68.32
2022-08-02T06:52:29.357Z,68.46
2022-08-02T06:54:59.397Z,68.46
2022-08-02T06:57:29.679Z,68.76
2022-08-02T06:59:58.653Z,68.82
2022-08-02T07:02:26.638Z,69.13
2022-08-02T07:04:55.514Z,69.12
2022-08-02T07:07:23.646Z,68.86
2022-08-02T07:10:00.451Z,68.95
2022-08-02T07:12:34.811Z,68.73
2022-08-02T07:15:05.128Z,68.58
2022-08-02T07:17:33.902Z,68.50
2022-08-02T07:20:02.372Z,68.48
2022-08-02T07:22:31.424Z,68.59
2022-08-02T07:25:01.077Z,68.55
2022-08-02T07:27:29.160Z,68.40
2022-08-02T07:29:59.221Z,68.40
2022-08-02T07:32:29.210Z,68.46
2022-08-02T07:34:58.400Z,68.52
2022-08-02T07:37:54.267Z,68.58
2022-08-02T07:40:20.115Z,68.30
2022-08-02T07:42:49.947Z,68.44
2022-08-02T07:45:19.652Z,68.42
2022-08-02T07:47:47.921Z,68.22
2022-08-02T07:50:17.697Z,68.08
2022-08-02T07:52:46.472Z,67.83
2022-08-02T07:55:15.657Z,67.85
2022-08-02T07:57:46.736Z,66.46
2022-08-02T08:00:17.376Z,64.91
2022-08-02T08:02:47.246Z,63.75
2022-08-02T08:05:15.879Z,60.61
2022-08-02T08:07:43.925Z,58.26
2022-08-02T08:10:12.042Z,57.20
2022-08-02T08:12:40.056Z,56.32
2022-08-02T08:15:08.880Z,55.64
2022-08-02T08:17:38.118Z,55.38
2022-08-02T08:20:10.084Z,54.49
2022-08-02T08:22:40.841Z,54.33
2022-08-02T08:25:09.446Z,54.13
2022-08-02T08:27:37.409Z,53.92
2022-08-02T08:30:05.898Z,54.43
2022-08-02T08:32:33.901Z,55.02
2022-08-02T08:35:03.619Z,54.97
2022-08-02T08:37:36.159Z,54.24
2022-08-02T08:40:05.525Z,54.58
2022-08-02T08:42:34.115Z,54.37
2022-08-02T08:45:01.986Z,54.73
2022-08-02T08:47:36.839Z,55.18
2022-08-02T08:50:07.321Z,54.85
2022-08-02T08:52:42.352Z,53.94
2022-08-02T08:55:11.959Z,52.27
2022-08-02T08:57:42.992Z,52.27
2022-08-02T09:00:13.450Z,52.71
2022-08-02T09:02:42.787Z,53.94
2022-08-02T09:05:12.644Z,53.66
2022-08-02T09:07:42.854Z,53.38
2022-08-02T09:10:33.392Z,52.96
2022-08-02T09:13:38.342Z,53.04
2022-08-02T09:16:12.398Z,53.27
2022-08-02T09:18:45.129Z,53.64
2022-08-02T09:21:14.933Z,52.95
2022-08-02T09:23:46.396Z,52.76
2022-08-02T09:26:16.596Z,52.66
2022-08-02T09:28:46.404Z,52.71
2022-08-02T09:31:15.996Z,52.64
2022-08-02T09:33:45.787Z,52.43
2022-08-02T09:36:16.211Z,50.01
2022-08-02T09:38:55.809Z,48.58
2022-08-02T09:41:25.554Z,48.98
2022-08-02T09:44:05.184Z,49.71
2022-08-02T09:46:37.536Z,50.67
2022-08-02T09:49:08.315Z,50.92
2022-08-02T09:51:37.892Z,50.37
2022-08-02T09:54:09.421Z,49.41
2022-08-02T09:56:43.219Z,49.39
2022-08-02T09:59:11.469Z,50.28
2022-08-02T10:01:39.849Z,50.89
2022-08-02T10:04:21.275Z,51.16
2022-08-02T10:06:51.572Z,49.33
2022-08-02T10:09:21.269Z,49.65
2022-08-02T10:11:50.413Z,50.03
2022-08-02T10:14:20.500Z,49.97
2022-08-02T10:16:48.460Z,49.07
2022-08-02T10:19:17.238Z,48.64
2022-08-02T10:21:47.408Z,49.32
2022-08-02T10:24:17.602Z,49.82
2022-08-02T10:26:48.250Z,49.13
2022-08-02T10:29:18.193Z,49.36
2022-08-02T10:31:52.537Z,48.56
2022-08-02T10:34:25.514Z,48.15
2022-08-02T10:37:03.856Z,48.81
2022-08-02T10:39:39.874Z,49.23
2022-08-02T10:42:09.954Z,49.02
2022-08-02T10:44:41.614Z,48.26
2022-08-02T10:47:26.718Z,47.82
2022-08-02T10:49:55.994Z,47.71
2022-08-02T10:52:24.891Z,47.85
2022-08-02T10:54:57.427Z,48.58
2022-08-02T10:57:29.005Z,46.62
2022-08-02T10:59:58.639Z,46.29
2022-08-02T11:02:38.460Z,46.88
2022-08-02T11:05:09.773Z,47.35
2022-08-02T11:07:39.715Z,46.78
2022-08-02T11:10:31.218Z,47.53
2022-08-02T11:13:20.373Z,47.61
2022-08-02T11:15:55.202Z,48.27
2022-08-02T11:18:25.158Z,48.47
2022-08-02T11:21:25.082Z,47.84
2022-08-02T11:23:53.924Z,47.29
2022-08-02T11:26:44.338Z,47.74
2022-08-02T11:29:15.953Z,47.28
2022-08-02T11:31:45.813Z,45.25
2022-08-02T11:34:37.105Z,44.97
2022-08-02T11:37:02.165Z,45.52
2022-08-02T11:39:30.128Z,45.51
2022-08-02T11:41:59.452Z,43.97
2022-08-02T11:44:30.473Z,44.88
2022-08-02T11:47:00.209Z,45.41
2022-08-02T11:49:29.493Z,44.94
2022-08-02T11:52:01.761Z,44.97
2022-08-02T11:54:31.742Z,43.75
2022-08-02T11:57:20.221Z,42.35
2022-08-02T11:59:51.777Z,42.70
2022-08-02T12:02:21.630Z,42.93
2022-08-02T12:04:58.519Z,43.28
2022-08-02T12:07:35.393Z,42.77
2022-08-02T12:10:08.428Z,42.17
2022-08-02T12:12:48.980Z,42.13
2022-08-02T12:15:31.102Z,42.00
2022-08-02T12:18:17.591Z,42.31
2022-08-02T12:20:45.692Z,42.22
2022-08-02T12:23:14.916Z,42.57
2022-08-02T12:25:42.973Z,42.69
2022-08-02T12:28:19.840Z,41.88
2022-08-02T12:30:54.525Z,40.09
2022-08-02T12:33:23.659Z,39.31
2022-08-02T12:35:52.239Z,40.01
2022-08-02T12:38:20.357Z,40.14
2022-08-02T12:40:48.965Z,39.67
2022-08-02T12:43:22.946Z,39.34
2022-08-02T12:45:54.566Z,39.19
2022-08-02T12:48:37.510Z,39.34
2022-08-02T12:51:56.312Z,38.27
2022-08-02T12:54:17.701Z,37.93
2022-08-02T12:56:46.545Z,38.44
2022-08-02T12:59:14.962Z,37.72
2022-08-02T13:01:45.683Z,37.07
2022-08-02T13:04:16.415Z,37.03
2022-08-02T13:06:45.604Z,37.31
2022-08-02T13:09:16.833Z,37.47
2022-08-02T13:11:44.914Z,36.47
2022-08-02T13:14:14.311Z,36.58
2022-08-02T13:16:45.344Z,35.54
2022-08-02T13:19:15.206Z,35.66
2022-08-02T13:22:02.462Z,35.79
2022-08-02T13:24:39.800Z,35.24
2022-08-02T13:27:10.116Z,34.24
2022-08-02T13:29:38.700Z,34.28
2022-08-02T13:32:08.085Z,34.46
2022-08-02T13:34:36.688Z,34.90
2022-08-02T13:37:05.405Z,33.90
2022-08-02T13:39:33.348Z,33.43
2022-08-02T13:42:01.347Z,33.09
2022-08-02T13:44:29.426Z,32.94
2022-08-02T13:46:57.711Z,32.85
2022-08-02T13:49:51.128Z,33.12
2022-08-02T13:52:15.411Z,32.41
2022-08-02T13:54:43.733Z,31.64
2022-08-02T13:57:11.609Z,31.01
2022-08-02T13:59:55.829Z,31.38
2022-08-02T14:02:26.052Z,30.91
2022-08-02T14:04:55.389Z,31.61
2022-08-02T14:07:23.348Z,32.12
2022-08-02T14:09:51.375Z,32.14
2022-08-02T14:12:20.414Z,32.10
2022-08-02T14:14:48.317Z,31.62
2022-08-02T14:17:18.687Z,31.33
2022-08-02T14:19:46.611Z,31.34
2022-08-02T14:22:15.922Z,31.16
2022-08-02T14:24:44.559Z,31.62
2022-08-02T14:27:12.460Z,31.52
2022-08-02T14:29:40.474Z,30.86
2022-08-02T14:32:09.142Z,31.55
2022-08-02T14:34:37.057Z,32.01
2022-08-02T14:37:05.004Z,32.38
2022-08-02T14:39:42.880Z,32.52
2022-08-02T14:42:22.326Z,32.18
2022-08-02T14:44:50.201Z,31.44
2022-08-02T14:47:18.188Z,31.80
2022-08-02T14:49:49.990Z,31.41
2022-08-02T14:52:18.377Z,31.57
2022-08-02T14:54:48.251Z,31.57
2022-08-02T14:57:16.397Z,31.32
2022-08-02T14:59:44.357Z,31.90
2022-08-02T15:02:13.841Z,32.19
2022-08-02T15:04:43.774Z,32.91
2022-08-02T15:07:13.677Z,33.15
2022-08-02T15:09:41.768Z,33.25
2022-08-02T15:12:12.819Z,33.68
2022-08-02T15:14:42.180Z,33.52
2022-08-02T15:17:10.820Z,33.94
2022-08-02T15:19:57.673Z,33.73
2022-08-02T15:22:29.144Z,34.28
2022-08-02T15:24:57.228Z,34.40
2022-08-02T15:27:26.934Z,34.10
2022-08-02T15:29:59.968Z,34.16
2022-08-02T15:32:28.339Z,34.18
2022-08-02T15:34:56.415Z,34.18
2022-08-02T15:37:24.325Z,34.50
2022-08-02T15:39:53.422Z,34.53
2022-08-02T15:42:21.557Z,34.42
2022-08-02T15:45:00.812Z,33.98
2022-08-02T15:47:28.800Z,34.26
2022-08-02T15:49:56.771Z,34.31
2022-08-02T15:52:26.765Z,34.31
2022-08-02T15:54:54.702Z,34.33
2022-08-02T15:57:22.573Z,34.75
2022-08-02T15:59:50.701Z,34.85
2022-08-02T16:02:20.219Z,34.68
2022-08-02T16:04:49.050Z,34.77
2022-08-02T16:07:17.226Z,34.64
2022-08-02T16:09:45.114Z,34.23
2022-08-02T16:12:13.363Z,33.73
2022-08-02T16:14:41.546Z,33.99
2022-08-02T16:17:12.666Z,34.27
2022-08-02T16:19:49.260Z,34.08
2022-08-02T16:22:18.198Z,34.33
2022-08-02T16:24:46.270Z,33.81
2022-08-02T16:27:14.473Z,33.49
2022-08-02T16:29:42.496Z,33.61
2022-08-02T16:32:11.532Z,34.08
2022-08-02T16:35:06.929Z,33.89
2022-08-02T16:37:28.822Z,33.71
2022-08-02T16:40:16.711Z,33.82
2022-08-02T16:42:50.702Z,33.72
2022-08-02T16:45:21.011Z,34.00
2022-08-02T16:47:55.202Z,33.80
2022-08-02T16:50:39.258Z,34.31
2022-08-02T16:53:07.877Z,34.26
2022-08-02T16:55:36.416Z,33.91
2022-08-02T16:58:04.877Z,34.08
2022-08-02T17:00:38.673Z,33.88
2022-08-02T17:03:14.234Z,33.92
2022-08-02T17:05:56.522Z,33.22
2022-08-02T17:08:32.164Z,33.50
2022-08-02T17:11:02.466Z,33.62
2022-08-02T17:13:34.390Z,33.94
2022-08-02T17:16:25.642Z,34.34
2022-08-02T17:18:55.205Z,34.10
2022-08-02T17:21:24.649Z,34.21
2022-08-02T17:24:06.194Z,33.91
2022-08-02T17:26:37.875Z,34.14
2022-08-02T17:29:14.135Z,34.03
2022-08-02T17:32:06.206Z,34.30
2022-08-02T17:34:34.769Z,34.86
2022-08-02T17:37:05.797Z,35.53
2022-08-02T17:39:43.995Z,35.61
2022-08-02T17:42:23.137Z,36.31
2022-08-02T17:44:52.712Z,36.50
2022-08-02T17:47:21.742Z,37.53
2022-08-02T17:49:49.955Z,38.27
2022-08-02T17:52:51.700Z,38.98
2022-08-02T17:55:14.190Z,39.52
2022-08-02T17:57:57.167Z,40.11
2022-08-02T18:00:26.782Z,40.22
2022-08-02T18:05:53.209Z,41.13
2022-08-02T18:08:25.106Z,41.05
2022-08-02T18:10:53.543Z,41.69
2022-08-02T18:13:21.955Z,41.78
2022-08-02T18:15:52.288Z,42.17
2022-08-02T18:18:29.856Z,42.55
2022-08-02T18:20:58.847Z,42.73
2022-08-02T18:23:49.369Z,42.97
2022-08-02T18:26:17.926Z,43.11
2022-08-02T18:28:48.893Z,43.46
2022-08-02T18:31:22.379Z,43.94
2022-08-02T18:33:58.364Z,44.08
2022-08-02T18:36:30.434Z,44.77
2022-08-02T18:39:08.137Z,44.87
2022-08-02T18:41:36.764Z,44.54
2022-08-02T18:44:06.428Z,45.42
2022-08-02T18:46:34.445Z,45.75
2022-08-02T18:49:06.696Z,45.95
2022-08-02T18:51:43.196Z,46.28
2022-08-02T18:54:12.662Z,46.73
2022-08-02T18:56:40.589Z,46.98
2022-08-02T18:59:15.530Z,47.31
2022-08-02T19:01:51.076Z,47.91
2022-08-02T19:07:08.458Z,47.70
2022-08-02T19:09:40.002Z,48.10
2022-08-02T19:12:11.342Z,47.92
2022-08-02T19:14:39.817Z,48.06
2022-08-02T19:17:16.082Z,48.28
2022-08-02T19:19:56.134Z,48.49
2022-08-02T19:22:24.249Z,48.13
2022-08-02T19:25:01.226Z,48.08
2022-08-02T19:27:32.896Z,48.45
2022-08-02T19:30:02.555Z,48.02
2022-08-02T19:32:40.267Z,48.71
2022-08-02T19:35:29.080Z,48.63
2022-08-02T19:38:06.182Z,49.01
2022-08-02T19:40:35.860Z,49.23
2022-08-02T19:44:26.937Z,49.63
2022-08-02T19:45:53.105Z,49.16
2022-08-02T19:48:27.194Z,49.53
2022-08-02T19:50:59.454Z,49.87
2022-08-02T19:53:47.967Z,50.04
2022-08-02T19:56:25.538Z,49.76
2022-08-02T19:58:55.022Z,50.14
2022-08-02T20:01:37.356Z,50.00
2022-08-02T20:04:13.080Z,50.10
2022-08-02T20:06:45.233Z,50.68
2022-08-02T20:09:16.639Z,50.85
2022-08-02T20:11:47.030Z,51.23
2022-08-02T20:14:26.857Z,51.17
2022-08-02T20:16:56.926Z,51.44
2022-08-02T20:19:29.740Z,51.38
2022-08-02T20:21:59.668Z,50.93
2022-08-02T20:24:29.395Z,51.18
2022-08-02T20:26:59.762Z,50.96
2022-08-02T20:29:42.780Z,50.78
2022-08-02T20:32:14.599Z,50.47
2022-08-02T20:34:42.847Z,50.62
2022-08-02T20:37:59.271Z,50.92
2022-08-02T20:40:04.979Z,50.77
2022-08-02T20:42:35.271Z,51.24
2022-08-02T20:45:03.210Z,50.89
2022-08-02T20:47:39.165Z,51.58
2022-08-02T20:50:31.730Z,51.49
2022-08-02T20:53:00.147Z,51.95
2022-08-02T20:55:31.199Z,52.10
2022-08-02T20:58:02.709Z,52.39
2022-08-02T21:00:31.592Z,53.13
2022-08-02T21:02:59.946Z,53.14
2022-08-02T21:05:53.923Z,52.91
2022-08-02T21:08:16.197Z,53.06
2022-08-02T21:10:51.790Z,53.32
2022-08-02T21:13:24.379Z,53.23
2022-08-02T21:15:56.560Z,53.43
2022-08-02T21:18:36.060Z,53.45
2022-08-02T21:21:09.948Z,53.57
2022-08-02T21:23:38.543Z,53.55
2022-08-02T21:26:25.696Z,53.46
2022-08-02T21:28:57.969Z,53.67
2022-08-02T21:31:30.088Z,53.76
2022-08-02T21:34:01.604Z,53.90
2022-08-02T21:36:30.711Z,53.91
2022-08-02T21:39:04.258Z,54.13
2022-08-02T21:41:40.039Z,54.17
2022-08-02T21:44:17.242Z,54.47
2022-08-02T21:46:46.532Z,54.54
2022-08-02T21:49:17.788Z,54.29
2022-08-02T21:51:49.188Z,54.35
2022-08-02T21:54:20.118Z,54.19
2022-08-02T21:56:49.863Z,54.26
2022-08-02T21:59:26.099Z,54.26
2022-08-02T22:01:56.969Z,54.37
2022-08-02T22:04:25.844Z,54.42
2022-08-02T22:06:53.988Z,54.40
2022-08-02T22:09:44.175Z,54.48
2022-08-02T22:12:17.051Z,54.96
2022-08-02T22:14:55.024Z,55.10
2022-08-02T22:17:51.867Z,55.25
2022-08-02T22:20:14.533Z,55.33
2022-08-02T22:22:43.497Z,55.41
2022-08-02T22:25:26.569Z,55.45
2022-08-02T22:28:34.989Z,55.33
2022-08-02T22:30:51.186Z,55.54
2022-08-02T22:33:38.802Z,55.48
2022-08-02T22:36:11.593Z,55.77
2022-08-02T22:38:44.351Z,56.14
2022-08-02T22:41:13.579Z,56.31
2022-08-02T22:43:42.395Z,56.32
2022-08-02T22:46:15.214Z,56.43
2022-08-02T22:48:43.923Z,56.49
2022-08-02T22:53:59.854Z,56.51
2022-08-02T22:56:27.756Z,56.41
2022-08-02T22:58:46.793Z,47.88
2022-08-02T22:58:58.665Z,40.67
2022-08-02T22:59:09.955Z,56.26
2022-08-02T23:01:45.028Z,56.68
2022-08-02T23:04:12.980Z,56.47
2022-08-02T23:06:40.914Z,56.47
2022-08-02T23:09:08.838Z,56.76
2022-08-02T23:11:36.778Z,56.73
2022-08-02T23:14:04.648Z,57.01
2022-08-02T23:16:50.173Z,57.37
2022-08-02T23:19:36.989Z,57.58
2022-08-02T23:22:04.869Z,57.82
2022-08-02T23:24:33.952Z,57.93
2022-08-02T23:27:02.238Z,57.96
2022-08-02T23:29:30.363Z,58.15
2022-08-02T23:31:59.011Z,58.20
2022-08-02T23:34:28.543Z,58.26
2022-08-02T23:36:56.467Z,58.34
2022-08-02T23:39:24.900Z,58.13
2022-08-02T23:41:55.067Z,57.83
2022-08-02T23:44:24.331Z,57.97
2022-08-02T23:46:53.093Z,57.79
2022-08-02T23:49:21.548Z,57.79
2022-08-02T23:51:51.466Z,57.66
2022-08-02T23:54:19.776Z,57.56
2022-08-02T23:56:47.849Z,57.67
2022-08-02T23:59:15.756Z,57.33
